createdAt,value
2019-01-24T00:02:19.129Z,27.77
2019-01-24T00:04:49.642Z,27.23
2019-01-24T00:07:20.102Z,27.60
2019-01-24T00:09:51.118Z,27.80
2019-01-24T00:12:21.652Z,27.00
2019-01-24T00:14:52.081Z,27.07
2019-01-24T00:17:22.528Z,28.80
2019-01-24T00:19:52.992Z,27.80
2019-01-24T00:22:23.397Z,28.53
2019-01-24T00:24:53.868Z,28.10
2019-01-24T00:27:24.297Z,28.87
2019-01-24T00:29:54.771Z,29.70
2019-01-24T00:32:25.242Z,28.40
2019-01-24T00:34:55.688Z,27.10
2019-01-24T00:37:26.116Z,29.23
2019-01-24T00:39:56.588Z,29.17
2019-01-24T00:42:27.039Z,29.73
2019-01-24T00:44:57.526Z,27.80
2019-01-24T00:47:27.990Z,28.17
2019-01-24T00:49:58.446Z,27.77
2019-01-24T00:52:28.906Z,28.10
2019-01-24T00:54:59.343Z,28.73
2019-01-24T00:57:29.738Z,29.20
2019-01-24T01:00:00.161Z,28.27
2019-01-24T01:02:30.624Z,27.80
2019-01-24T01:05:01.260Z,27.43
2019-01-24T01:07:31.770Z,26.73
2019-01-24T01:10:02.299Z,26.73
2019-01-24T01:12:32.692Z,26.27
2019-01-24T01:15:03.356Z,27.20
2019-01-24T01:17:33.791Z,27.13
2019-01-24T01:20:05.274Z,25.77
2019-01-24T01:22:35.814Z,26.93
2019-01-24T01:25:09.159Z,26.77
2019-01-24T01:27:39.730Z,28.00
2019-01-24T01:30:17.430Z,26.93
2019-01-24T01:32:47.926Z,27.47
2019-01-24T01:35:19.038Z,26.03
2019-01-24T01:37:49.637Z,26.43
2019-01-24T01:40:20.997Z,26.57
2019-01-24T01:42:51.445Z,28.33
2019-01-24T01:45:24.836Z,26.97
2019-01-24T01:47:55.296Z,27.47
2019-01-24T01:50:26.500Z,27.77
2019-01-24T01:52:56.939Z,27.33
2019-01-24T01:55:27.359Z,28.57
2019-01-24T01:57:57.823Z,27.10
2019-01-24T02:00:28.628Z,27.30
2019-01-24T02:02:59.031Z,27.97
2019-01-24T02:05:29.462Z,28.30
2019-01-24T02:07:59.879Z,29.80
2019-01-24T02:10:30.318Z,29.20
2019-01-24T02:13:00.773Z,28.90
2019-01-24T02:15:31.201Z,29.70
2019-01-24T02:18:01.629Z,28.93
2019-01-24T02:20:32.107Z,30.90
2019-01-24T02:23:02.610Z,30.40
2019-01-24T02:25:33.066Z,30.37
2019-01-24T02:28:03.458Z,28.87
2019-01-24T02:30:33.968Z,30.30
2019-01-24T02:33:04.646Z,29.73
2019-01-24T02:35:35.150Z,30.77
2019-01-24T02:38:05.610Z,30.33
2019-01-24T02:40:36.024Z,29.20
2019-01-24T02:43:06.534Z,30.53
2019-01-24T02:45:36.975Z,29.33
2019-01-24T02:48:07.377Z,30.50
2019-01-24T02:50:37.947Z,29.93
2019-01-24T02:53:08.359Z,29.70
2019-01-24T02:55:38.805Z,30.77
2019-01-24T02:58:09.226Z,31.20
2019-01-24T03:00:39.662Z,33.17
2019-01-24T03:03:10.052Z,31.57
2019-01-24T03:05:40.485Z,31.83
2019-01-24T03:08:10.897Z,30.90
2019-01-24T03:10:41.345Z,31.97
2019-01-24T03:13:11.763Z,31.53
2019-01-24T03:15:42.218Z,31.83
2019-01-24T03:18:12.633Z,30.93
2019-01-24T03:20:43.107Z,30.80
2019-01-24T03:23:13.573Z,30.30
2019-01-24T03:25:44.136Z,30.87
2019-01-24T03:28:14.614Z,32.47
2019-01-24T03:30:45.030Z,30.90
2019-01-24T03:33:15.449Z,31.00
2019-01-24T03:35:45.872Z,31.93
2019-01-24T03:38:16.337Z,31.23
2019-01-24T03:40:46.765Z,29.10
2019-01-24T03:43:17.220Z,31.47
2019-01-24T03:45:48.136Z,29.50
2019-01-24T03:48:18.671Z,28.77
2019-01-24T03:50:49.294Z,30.10
2019-01-24T03:53:19.761Z,31.03
2019-01-24T03:55:50.179Z,29.93
2019-01-24T03:58:20.695Z,31.50
2019-01-24T04:00:51.238Z,30.23
2019-01-24T04:03:21.748Z,30.40
2019-01-24T04:05:52.202Z,28.63
2019-01-24T04:08:22.617Z,29.80
2019-01-24T04:10:53.634Z,28.70
2019-01-24T04:13:24.169Z,29.37
2019-01-24T04:15:54.823Z,29.07
2019-01-24T04:18:25.549Z,29.70
2019-01-24T04:20:56.308Z,29.93
2019-01-24T04:23:26.946Z,29.87
2019-01-24T04:25:57.561Z,28.10
2019-01-24T04:28:28.127Z,29.23
2019-01-24T04:30:58.721Z,28.20
2019-01-24T04:33:29.227Z,28.07
2019-01-24T04:36:00.254Z,30.37
2019-01-24T04:38:30.777Z,28.80
2019-01-24T04:41:01.336Z,28.33
2019-01-24T04:43:31.856Z,29.40
2019-01-24T04:46:02.529Z,30.87
2019-01-24T04:48:33.036Z,28.47
2019-01-24T04:51:03.548Z,28.67
2019-01-24T04:53:34.049Z,29.10
2019-01-24T04:56:04.887Z,28.53
2019-01-24T04:58:35.402Z,29.70
2019-01-24T05:01:06.064Z,28.43
2019-01-24T05:03:36.684Z,29.27
2019-01-24T05:06:07.330Z,27.47
2019-01-24T05:08:37.872Z,27.43
2019-01-24T05:11:10.536Z,28.13
2019-01-24T05:13:41.089Z,27.97
2019-01-24T05:16:11.661Z,26.60
2019-01-24T05:18:42.309Z,28.67
2019-01-24T05:21:12.814Z,28.03
2019-01-24T05:23:43.306Z,26.60
2019-01-24T05:26:13.863Z,26.30
2019-01-24T05:28:44.340Z,26.83
2019-01-24T05:31:14.822Z,28.17
2019-01-24T05:33:45.344Z,27.60
2019-01-24T05:36:15.983Z,27.13
2019-01-24T05:38:46.466Z,28.00
2019-01-24T05:41:17.010Z,27.73
2019-01-24T05:43:48.484Z,28.63
2019-01-24T05:46:19.140Z,27.43
2019-01-24T05:48:49.633Z,29.73
2019-01-24T05:51:20.071Z,28.40
2019-01-24T05:53:50.504Z,29.27
2019-01-24T05:56:20.940Z,27.93
2019-01-24T05:58:51.350Z,27.77
2019-01-24T06:01:22.454Z,30.03
2019-01-24T06:03:52.973Z,28.80
2019-01-24T06:06:23.432Z,28.30
2019-01-24T06:08:53.828Z,27.57
2019-01-24T06:11:24.311Z,28.83
2019-01-24T06:13:54.745Z,28.57
2019-01-24T06:16:25.229Z,28.90
2019-01-24T06:18:55.778Z,27.13
2019-01-24T06:21:26.349Z,27.93
2019-01-24T06:23:56.839Z,29.63
2019-01-24T06:26:27.363Z,28.53
2019-01-24T06:28:57.811Z,27.53
2019-01-24T06:31:28.287Z,28.97
2019-01-24T06:33:58.769Z,27.90
2019-01-24T06:36:29.310Z,27.10
2019-01-24T06:38:59.827Z,26.53
2019-01-24T06:41:30.311Z,27.67
2019-01-24T06:44:00.899Z,28.10
2019-01-24T06:46:31.387Z,26.57
2019-01-24T06:49:02.093Z,28.27
2019-01-24T06:51:32.645Z,26.37
2019-01-24T06:54:03.113Z,27.33
2019-01-24T06:56:33.560Z,26.80
2019-01-24T06:59:03.985Z,27.43
2019-01-24T07:01:34.439Z,28.57
2019-01-24T07:04:04.864Z,27.73
2019-01-24T07:06:35.378Z,25.93
2019-01-24T07:09:09.135Z,27.30
2019-01-24T07:11:39.639Z,26.13
2019-01-24T07:14:10.097Z,25.43
2019-01-24T07:16:40.685Z,26.87
2019-01-24T07:19:11.082Z,26.53
2019-01-24T07:21:41.560Z,27.73
2019-01-24T07:24:12.025Z,24.80
2019-01-24T07:26:42.500Z,24.77
2019-01-24T07:29:12.940Z,24.27
2019-01-24T07:31:43.402Z,23.57
2019-01-24T07:34:13.880Z,23.93
2019-01-24T07:36:44.331Z,24.93
2019-01-24T07:39:14.797Z,24.53
2019-01-24T07:41:45.265Z,24.57
2019-01-24T07:44:15.699Z,23.50
2019-01-24T07:46:46.185Z,23.90
2019-01-24T07:49:16.605Z,23.57
2019-01-24T07:51:47.236Z,24.70
2019-01-24T07:54:17.650Z,24.93
2019-01-24T07:56:48.127Z,23.50
2019-01-24T07:59:18.645Z,23.67
2019-01-24T08:01:49.064Z,22.70
2019-01-24T08:04:19.533Z,23.47
2019-01-24T08:06:49.956Z,22.43
2019-01-24T08:09:20.411Z,22.33
2019-01-24T08:11:50.952Z,23.07
2019-01-24T08:14:21.432Z,22.93
2019-01-24T08:16:51.936Z,22.70
2019-01-24T08:19:22.417Z,20.27
2019-01-24T08:21:52.915Z,21.87
2019-01-24T08:24:23.370Z,20.43
2019-01-24T08:26:53.809Z,19.60
2019-01-24T08:29:24.269Z,19.37
2019-01-24T08:31:54.716Z,20.37
2019-01-24T08:34:25.258Z,20.83
2019-01-24T08:36:55.711Z,20.63
2019-01-24T08:39:26.179Z,19.10
2019-01-24T08:41:56.593Z,20.93
2019-01-24T08:44:27.036Z,20.47
2019-01-24T08:46:57.483Z,20.77
2019-01-24T08:49:28.039Z,19.67
2019-01-24T08:51:58.604Z,20.10
2019-01-24T08:54:29.123Z,19.87
2019-01-24T08:56:59.671Z,20.27
2019-01-24T08:59:30.146Z,20.50
2019-01-24T09:02:00.677Z,21.13
2019-01-24T09:04:31.139Z,20.63
2019-01-24T09:07:01.607Z,21.03
2019-01-24T09:09:32.042Z,19.90
2019-01-24T09:12:02.504Z,19.67
2019-01-24T09:14:32.981Z,21.50
2019-01-24T09:17:03.437Z,20.50
2019-01-24T09:19:33.929Z,19.50
2019-01-24T09:22:04.794Z,20.13
2019-01-24T09:24:35.290Z,20.93
2019-01-24T09:27:05.743Z,19.70
2019-01-24T09:29:36.187Z,19.67
2019-01-24T09:32:06.872Z,19.07
2019-01-24T09:34:37.349Z,21.77
2019-01-24T09:37:07.803Z,19.70
2019-01-24T09:39:38.343Z,19.83
2019-01-24T09:42:08.770Z,18.77
2019-01-24T09:44:39.304Z,18.00
2019-01-24T09:47:09.799Z,20.17
2019-01-24T09:49:40.307Z,19.67
2019-01-24T09:52:10.776Z,18.90
2019-01-24T09:54:41.234Z,18.10
2019-01-24T09:57:11.714Z,19.20
2019-01-24T09:59:42.172Z,18.93
2019-01-24T10:02:12.620Z,17.80
2019-01-24T10:04:43.076Z,19.03
2019-01-24T10:07:13.579Z,17.67
2019-01-24T10:09:44.045Z,18.23
2019-01-24T10:12:14.482Z,18.23
2019-01-24T10:14:44.980Z,17.03
2019-01-24T10:17:15.426Z,17.60
2019-01-24T10:19:45.865Z,18.20
2019-01-24T10:22:16.347Z,18.70
2019-01-24T10:24:46.938Z,16.50
2019-01-24T10:27:17.378Z,17.67
2019-01-24T10:29:47.890Z,18.90
2019-01-24T10:32:18.323Z,18.23
2019-01-24T10:34:48.809Z,18.13
2019-01-24T10:37:19.263Z,17.53
2019-01-24T10:39:49.769Z,18.63
2019-01-24T10:42:20.221Z,17.77
2019-01-24T10:44:50.714Z,18.70
2019-01-24T10:47:21.190Z,17.87
2019-01-24T10:49:51.654Z,17.97
2019-01-24T10:52:22.136Z,18.63
2019-01-24T10:54:52.629Z,18.67
2019-01-24T10:57:23.068Z,17.60
2019-01-24T10:59:53.536Z,19.37
2019-01-24T11:02:24.003Z,18.97
2019-01-24T11:04:54.460Z,19.20
2019-01-24T11:07:24.914Z,17.70
2019-01-24T11:09:55.387Z,18.23
2019-01-24T11:12:25.848Z,19.83
2019-01-24T11:14:56.353Z,18.90
2019-01-24T11:17:26.799Z,18.97
2019-01-24T11:19:57.280Z,19.43
2019-01-24T11:22:27.755Z,20.03
2019-01-24T11:24:58.318Z,19.03
2019-01-24T11:27:28.817Z,19.10
2019-01-24T11:29:59.339Z,19.90
2019-01-24T11:32:29.806Z,18.83
2019-01-24T11:35:00.280Z,18.93
2019-01-24T11:37:30.727Z,19.47
2019-01-24T11:40:01.187Z,19.83
2019-01-24T11:42:31.676Z,18.90
2019-01-24T11:45:02.250Z,20.03
2019-01-24T11:47:32.740Z,20.40
2019-01-24T11:50:03.292Z,19.23
2019-01-24T11:52:33.814Z,19.00
2019-01-24T11:55:05.252Z,19.13
2019-01-24T11:57:35.838Z,18.30
2019-01-24T12:00:17.458Z,19.20
2019-01-24T12:02:48.006Z,18.87
2019-01-24T12:05:18.696Z,19.73
2019-01-24T12:07:49.130Z,19.27
2019-01-24T12:10:22.241Z,17.73
2019-01-24T12:12:52.689Z,18.03
2019-01-24T12:15:24.106Z,18.43
2019-01-24T12:17:54.570Z,19.07
2019-01-24T12:20:25.844Z,19.13
2019-01-24T12:22:56.437Z,18.97
2019-01-24T12:25:26.943Z,18.53
2019-01-24T12:27:57.364Z,18.27
2019-01-24T12:30:33.573Z,18.53
2019-01-24T12:33:04.765Z,19.03
2019-01-24T12:35:35.659Z,18.93
2019-01-24T12:38:06.599Z,19.60
2019-01-24T12:40:37.097Z,19.57
2019-01-24T12:43:07.708Z,21.00
2019-01-24T12:45:39.125Z,19.63
2019-01-24T12:48:09.664Z,19.53
2019-01-24T12:50:40.136Z,21.37
2019-01-24T12:53:10.683Z,19.57
2019-01-24T12:55:41.127Z,20.33
2019-01-24T12:58:11.606Z,19.53
2019-01-24T13:00:42.100Z,21.27
2019-01-24T13:03:12.593Z,19.23
2019-01-24T13:05:43.054Z,20.33
2019-01-24T13:08:13.596Z,20.07
2019-01-24T13:10:44.047Z,19.73
2019-01-24T13:13:14.543Z,20.00
2019-01-24T13:15:45.018Z,21.23
2019-01-24T13:18:15.536Z,20.87
2019-01-24T13:20:46.069Z,19.63
2019-01-24T13:23:16.535Z,19.63
2019-01-24T13:25:46.998Z,18.73
2019-01-24T13:28:17.432Z,19.27
2019-01-24T13:30:48.063Z,19.47
2019-01-24T13:33:18.520Z,20.17
2019-01-24T13:35:49.035Z,18.83
2019-01-24T13:38:19.507Z,20.90
2019-01-24T13:40:49.997Z,19.33
2019-01-24T13:43:20.451Z,18.47
2019-01-24T13:45:50.931Z,18.80
2019-01-24T13:48:21.448Z,19.30
2019-01-24T13:50:51.921Z,20.03
2019-01-24T13:53:22.353Z,20.43
2019-01-24T13:55:53.342Z,19.63
2019-01-24T13:58:23.856Z,22.93
2019-01-24T14:00:54.363Z,20.50
2019-01-24T14:04:10.470Z,18.67
2019-01-24T14:06:40.926Z,20.60
2019-01-24T14:09:12.254Z,21.43
2019-01-24T14:11:42.723Z,20.07
2019-01-24T14:14:13.242Z,19.27
2019-01-24T14:16:43.722Z,19.80
2019-01-24T14:19:14.269Z,19.50
2019-01-24T14:21:44.725Z,19.07
2019-01-24T14:24:15.231Z,19.20
2019-01-24T14:26:45.800Z,18.00
2019-01-24T14:29:16.291Z,18.60
2019-01-24T14:31:46.760Z,19.20
2019-01-24T14:34:17.243Z,20.10
2019-01-24T14:36:47.815Z,19.47
2019-01-24T14:39:18.295Z,19.43
2019-01-24T14:41:48.915Z,19.53
2019-01-24T14:44:19.440Z,19.40
2019-01-24T14:46:50.018Z,19.13
2019-01-24T14:49:20.554Z,20.83
2019-01-24T14:51:51.058Z,22.10
2019-01-24T14:54:21.572Z,20.77
2019-01-24T14:56:52.100Z,20.17
2019-01-24T14:59:22.586Z,20.53
2019-01-24T15:01:53.121Z,19.47
2019-01-24T15:04:23.650Z,18.47
2019-01-24T15:06:54.158Z,18.93
2019-01-24T15:09:24.684Z,18.13
2019-01-24T15:11:55.217Z,19.43
2019-01-24T15:14:25.667Z,18.23
2019-01-24T15:16:56.197Z,19.97
2019-01-24T15:19:27.012Z,19.63
2019-01-24T15:21:57.503Z,19.43
2019-01-24T15:24:28.032Z,19.50
2019-01-24T15:26:58.565Z,17.43
2019-01-24T15:29:29.038Z,19.90
2019-01-24T15:31:59.495Z,18.00
2019-01-24T15:34:29.983Z,19.13
2019-01-24T15:37:02.811Z,19.07
2019-01-24T15:39:33.313Z,19.03
2019-01-24T15:42:03.836Z,19.53
2019-01-24T15:44:34.310Z,18.87
2019-01-24T15:47:04.808Z,19.10
2019-01-24T15:49:35.375Z,19.47
2019-01-24T15:52:06.879Z,19.37
2019-01-24T15:54:37.516Z,21.07
2019-01-24T15:57:08.019Z,19.73
2019-01-24T15:59:38.485Z,19.60
2019-01-24T16:02:09.839Z,19.50
2019-01-24T16:04:40.481Z,19.73
2019-01-24T16:07:11.040Z,18.43
2019-01-24T16:09:41.544Z,20.07
2019-01-24T16:12:12.075Z,20.47
2019-01-24T16:14:42.494Z,20.20
2019-01-24T16:17:13.017Z,20.33
2019-01-24T16:19:43.491Z,18.40
2019-01-24T16:22:14.369Z,19.50
2019-01-24T16:24:44.817Z,19.03
2019-01-24T16:27:15.322Z,18.37
2019-01-24T16:29:45.803Z,23.30
2019-01-24T16:32:16.327Z,21.60
2019-01-24T16:34:46.885Z,22.23
2019-01-24T16:37:17.427Z,20.40
2019-01-24T16:39:48.402Z,20.60
2019-01-24T16:42:18.958Z,21.17
2019-01-24T16:44:49.530Z,20.63
2019-01-24T16:47:20.138Z,20.40
2019-01-24T16:49:50.633Z,19.90
2019-01-24T16:52:21.211Z,19.47
2019-01-24T16:54:51.741Z,20.00
2019-01-24T16:57:22.331Z,19.43
2019-01-24T16:59:52.627Z,20.80
2019-01-24T17:02:23.148Z,20.77
2019-01-24T17:04:53.653Z,21.50
2019-01-24T17:07:24.235Z,22.60
2019-01-24T17:09:54.777Z,21.43
2019-01-24T17:12:25.423Z,20.40
2019-01-24T17:14:55.922Z,20.53
2019-01-24T17:17:28.688Z,21.07
2019-01-24T17:19:59.190Z,21.53
2019-01-24T17:22:29.677Z,21.57
2019-01-24T17:25:00.243Z,21.00
2019-01-24T17:27:30.739Z,21.23
2019-01-24T17:30:01.234Z,20.77
2019-01-24T17:32:31.796Z,21.70
2019-01-24T17:35:02.319Z,22.30
2019-01-24T17:37:32.849Z,20.97
2019-01-24T17:40:03.696Z,21.53
2019-01-24T17:42:34.350Z,21.17
2019-01-24T17:45:06.421Z,22.50
2019-01-24T17:47:36.956Z,22.00
2019-01-24T17:50:09.530Z,21.23
2019-01-24T17:52:40.015Z,21.30
2019-01-24T17:55:15.339Z,21.03
2019-01-24T17:57:45.858Z,21.50
2019-01-24T18:00:20.014Z,20.17
2019-01-24T18:02:50.519Z,22.67
2019-01-24T18:05:21.127Z,20.07
2019-01-24T18:07:51.702Z,20.13
2019-01-24T18:10:26.392Z,20.93
2019-01-24T18:12:56.880Z,21.03
2019-01-24T18:15:30.179Z,21.77
2019-01-24T18:18:00.953Z,22.17
2019-01-24T18:20:33.455Z,21.33
2019-01-24T18:23:04.541Z,20.87
2019-01-24T18:25:34.985Z,22.03
2019-01-24T18:28:07.061Z,21.23
2019-01-24T18:30:37.755Z,19.87
2019-01-24T18:33:08.494Z,20.27
2019-01-24T18:35:39.044Z,19.60
2019-01-24T18:38:10.014Z,20.43
2019-01-24T18:40:40.721Z,21.80
2019-01-24T18:43:25.626Z,22.60
2019-01-24T18:45:59.491Z,22.17
2019-01-24T18:48:30.280Z,23.10
2019-01-24T18:51:00.786Z,21.13
2019-01-24T18:53:31.290Z,19.90
2019-01-24T18:56:01.810Z,21.03
2019-01-24T18:58:32.321Z,21.03
2019-01-24T19:01:03.886Z,20.70
2019-01-24T19:03:34.361Z,20.40
2019-01-24T19:06:04.942Z,19.60
2019-01-24T19:08:36.829Z,20.00
2019-01-24T19:11:07.748Z,20.10
2019-01-24T19:13:38.251Z,20.83
2019-01-24T19:16:08.950Z,20.20
2019-01-24T19:18:39.408Z,20.63
2019-01-24T19:21:09.988Z,21.13
2019-01-24T19:23:40.524Z,20.90
2019-01-24T19:26:11.331Z,21.57
2019-01-24T19:28:41.796Z,20.30
2019-01-24T19:31:12.307Z,21.97
2019-01-24T19:33:42.757Z,20.13
2019-01-24T19:36:13.308Z,21.13
2019-01-24T19:38:43.796Z,21.27
2019-01-24T19:41:14.299Z,21.37
2019-01-24T19:43:44.840Z,20.97
2019-01-24T19:46:15.523Z,21.33
2019-01-24T19:48:46.968Z,20.73
2019-01-24T19:51:17.452Z,20.13
2019-01-24T19:53:47.954Z,21.10
2019-01-24T19:56:18.528Z,20.03
2019-01-24T19:58:49.029Z,21.63
2019-01-24T20:01:19.499Z,21.50
2019-01-24T20:03:50.055Z,20.23
2019-01-24T20:06:20.529Z,20.37
2019-01-24T20:08:51.177Z,20.63
2019-01-24T20:11:21.846Z,20.83
2019-01-24T20:13:52.319Z,21.10
2019-01-24T20:16:22.886Z,21.10
2019-01-24T20:18:53.316Z,21.13
2019-01-24T20:21:23.888Z,22.23
2019-01-24T20:23:54.446Z,20.90
2019-01-24T20:26:24.997Z,21.47
2019-01-24T20:28:55.509Z,21.00
2019-01-24T20:31:26.178Z,20.90
2019-01-24T20:33:56.685Z,21.67
2019-01-24T20:36:27.224Z,21.30
2019-01-24T20:38:57.764Z,21.43
2019-01-24T20:41:28.376Z,22.57
2019-01-24T20:43:58.879Z,21.73
2019-01-24T20:46:29.429Z,23.07
2019-01-24T20:48:59.957Z,21.77
2019-01-24T20:51:30.489Z,21.43
2019-01-24T20:54:01.030Z,20.57
2019-01-24T20:56:31.496Z,20.43
2019-01-24T20:59:01.997Z,21.37
2019-01-24T21:01:32.435Z,20.87
2019-01-24T21:04:02.894Z,20.93
2019-01-24T21:06:33.334Z,20.30
2019-01-24T21:09:06.087Z,21.47
2019-01-24T21:11:36.622Z,21.83
2019-01-24T21:14:07.697Z,21.40
2019-01-24T21:16:38.179Z,21.07
2019-01-24T21:19:08.729Z,21.13
2019-01-24T21:21:39.303Z,21.53
2019-01-24T21:24:09.802Z,20.90
2019-01-24T21:26:40.406Z,20.40
2019-01-24T21:29:11.653Z,21.00
2019-01-24T21:31:42.200Z,22.07
2019-01-24T21:34:12.733Z,21.33
2019-01-24T21:36:43.401Z,21.00
2019-01-24T21:39:33.247Z,22.07
2019-01-24T21:42:04.163Z,21.03
2019-01-24T21:44:35.049Z,20.80
2019-01-24T21:47:05.756Z,20.37
2019-01-24T21:49:36.668Z,20.83
2019-01-24T21:52:07.417Z,20.13
2019-01-24T21:54:39.399Z,19.57
2019-01-24T21:57:10.247Z,19.87
2019-01-24T21:59:40.843Z,20.83
2019-01-24T22:02:11.325Z,20.37
2019-01-24T22:04:41.913Z,20.23
2019-01-24T22:07:12.374Z,21.27
2019-01-24T22:09:42.840Z,21.07
2019-01-24T22:12:13.341Z,20.70
2019-01-24T22:14:43.816Z,20.97
2019-01-24T22:17:14.303Z,20.33
2019-01-24T22:19:44.883Z,19.63
2019-01-24T22:22:15.334Z,20.73
2019-01-24T22:24:45.843Z,21.27
2019-01-24T22:27:16.349Z,21.03
2019-01-24T22:29:46.836Z,20.47
2019-01-24T22:32:17.364Z,21.37
2019-01-24T22:34:47.868Z,20.90
2019-01-24T22:37:18.330Z,21.07
2019-01-24T22:39:48.848Z,22.07
2019-01-24T22:42:19.329Z,21.63
2019-01-24T22:44:49.849Z,21.33
2019-01-24T22:47:20.336Z,19.03
2019-01-24T22:49:50.826Z,21.90
2019-01-24T22:52:21.338Z,21.10
2019-01-24T22:54:51.834Z,21.10
2019-01-24T22:57:22.333Z,22.97
2019-01-24T22:59:53.150Z,24.17
2019-01-24T23:02:28.447Z,21.07
2019-01-24T23:04:58.955Z,22.67
2019-01-24T23:07:29.434Z,21.50
2019-01-24T23:09:59.960Z,23.73
2019-01-24T23:12:30.456Z,23.00
2019-01-24T23:15:00.939Z,22.90
2019-01-24T23:17:31.379Z,24.73
2019-01-24T23:20:01.843Z,23.97
2019-01-24T23:22:32.294Z,23.30
2019-01-24T23:25:02.845Z,23.67
2019-01-24T23:27:33.354Z,25.30
2019-01-24T23:30:05.440Z,24.37
2019-01-24T23:32:35.903Z,23.93
2019-01-24T23:35:07.546Z,24.90
2019-01-24T23:37:38.040Z,24.17
2019-01-24T23:40:08.888Z,25.17
2019-01-24T23:42:39.483Z,24.23
2019-01-24T23:45:10.197Z,22.83
2019-01-24T23:47:40.767Z,24.10
2019-01-24T23:50:11.404Z,24.47
2019-01-24T23:52:41.871Z,24.57
2019-01-24T23:55:12.500Z,24.13
2019-01-24T23:57:42.996Z,22.97
